Ely, NV

7:09 PM PDT on April 25, 2017 (GMT -0700)
Ely | | Change Station

Elev 6260 ft 39.30 °N, 114.84 °W | Updated 16 minutes ago

Clear
Clear
46 °F
Feels Like 41 °F
N
9
Wind Variable Wind from NW

Today
High -- | Low -- °F
--% Chance of Precip.
Yesterday
High -- | Low -- °F
Precip. -- in
Pressure 29.88 in
Visibility 10.0 miles
Clouds Clear
Windchill 41 °F
Dew Point 20 °F
Humidity 35%
Rainfall 0.02 in
Snow Depth Not available.
5:47 AM 7:27 PM
Waning Crescent, 0% visible
METAR KELY 260153Z AUTO 31008KT 10SM CLR 08/M07 A2996 RMK AO2 SLP117 T00781067
Pressure 29.88 in
Visibility 10.0 miles
Clouds Clear
Windchill 41 °F
Dew Point 20 °F
Humidity 35%
Rainfall 0.02 in
Snow Depth Not available.
5:47 AM 7:27 PM
Waning Crescent, 0% visible
METAR KELY 260153Z AUTO 31008KT 10SM CLR 08/M07 A2996 RMK AO2 SLP117 T00781067

Get Severe Weather Alerts

Thanks for signing up!

Be on the lookout for a verification email in your inbox.

You'll start receiving the daily forecast at 8 AM.

×

10-Day Weather Forecast

Almanac

Astronomy

Apr. 25, 2017 Rise Set
Actual Time
Civil Twilight
Nautical Twilight
Astronomical Twilight
Moon
Length of Visible Light
Length of Day
Tomorrow will be .
, % of the Moon is Illuminated

Today's Extremes

State Highs State Lows

Community

WunderPhotos

WunderBlog® & News

Nearby

Air Quality

  Air Quality AQ Index Pollutant
Not available.

Snow Depth

Station Depth Elevation

Earthquake Activity

City Distance Mag. Time & Date
Minimum magnitude displayed is 2.5.

Coastal Water Temperatures

Place Temperature

Stations

Nearby Weather Stations

Station Location Temp. Windchill Dew Point Humidity Wind Precip. Elev Updated Type
                   

Watches & Warnings

There are currently no watches in effect.